Airport View

Enter AWOS ICAO identifier for current METAR.

ex. KFNL

KLDJ 202250Z AUTO 16005KT 10SM SCT004 18/16 A3022 RMK AO2 T01770161

20 Oct 2020 22:44

Frequency: 124.025

Phone: 908-862-7383

Other Area AWOS: KEWR - KJRB - KMMU - KCDW

TAF AMD KEWR 201934Z 2020/2124 VRB03KT P6SM SCT015 BKN025 FM210000 VRB04KT 5SM BR SCT010 BKN015 FM210200 VRB03KT 3SM BR OVC007 TEMPO 2107/2111 1SM BR OVC004 FM211600 21007KT 6SM BR SCT007 BKN020 FM211800 21007KT P6SM BKN035